Time,TemperatureF,DewpointF,PressureIn,WindDirection,WindDirectionDegrees,WindSpeedMPH,WindSpeedGustMPH,Humidity,HourlyPrecipIn,Conditions,Clouds,dailyrainin,SoftwareType,DateUTC
2013-05-27 00:03:00,48.8,26.2,29.82,West,261,5.0,5.0,41,0.00,,---,0.00,VWS V14.01,2013-05-27 06:03:00,
2013-05-27 00:08:00,48.4,26.4,29.81,West,261,6.0,7.0,42,0.00,,---,0.00,VWS V14.01,2013-05-27 06:08:00,
2013-05-27 00:13:00,48.1,26.1,29.81,WSW,244,5.0,8.0,42,0.00,,---,0.00,VWS V14.01,2013-05-27 06:13:00,
2013-05-27 00:18:00,47.9,25.4,29.81,West,277,7.0,7.0,41,0.00,,---,0.00,VWS V14.01,2013-05-27 06:18:00,
2013-05-27 00:23:00,48.2,25.6,29.81,West,273,1.0,4.0,41,0.00,,---,0.00,VWS V14.01,2013-05-27 06:23:00,
2013-05-27 00:28:00,48.2,25.0,29.81,West,273,4.0,7.0,40,0.00,,---,0.00,VWS V14.01,2013-05-27 06:28:00,
2013-05-27 00:33:00,48.3,24.5,29.81,West,273,2.0,4.0,39,0.00,,---,0.00,VWS V14.01,2013-05-27 06:33:00,
2013-05-27 00:38:00,48.6,24.2,29.81,West,273,3.0,4.0,38,0.00,,---,0.00,VWS V14.01,2013-05-27 06:38:00,
2013-05-27 00:43:00,49.2,23.4,29.80,WSW,257,7.0,7.0,36,0.00,,---,0.00,VWS V14.01,2013-05-27 06:43:00,
2013-05-27 00:48:00,49.7,22.5,29.80,WSW,257,4.0,7.0,34,0.00,,---,0.00,VWS V14.01,2013-05-27 06:48:00,
2013-05-27 00:53:00,50.0,22.0,29.80,WSW,257,0.0,5.0,33,0.00,,---,0.00,VWS V14.01,2013-05-27 06:53:00,
2013-05-27 00:58:00,50.1,22.1,29.81,West,269,5.0,7.0,33,0.00,,---,0.00,VWS V14.01,2013-05-27 06:58:00,
2013-05-27 01:03:00,50.1,21.4,29.80,WSW,244,0.0,1.0,32,0.00,,---,0.00,VWS V14.01,2013-05-27 07:03:00,
2013-05-27 01:08:00,49.9,21.2,29.80,WSW,245,1.0,4.0,32,0.00,,---,0.00,VWS V14.01,2013-05-27 07:08:00,
2013-05-27 01:13:00,49.6,20.2,29.80,SW,221,4.0,7.0,31,0.00,,---,0.00,VWS V14.01,2013-05-27 07:13:00,
2013-05-27 01:18:00,49.4,20.8,29.80,SW,225,7.0,8.0,32,0.00,,---,0.00,VWS V14.01,2013-05-27 07:18:00,
2013-05-27 01:23:00,49.4,20.0,29.80,WNW,288,1.0,6.0,31,0.00,,---,0.00,VWS V14.01,2013-05-27 07:23:00,
2013-05-27 01:28:00,49.3,20.0,29.80,West,274,6.0,6.0,31,0.00,,---,0.00,VWS V14.01,2013-05-27 07:28:00,
2013-05-27 01:33:00,49.2,19.1,29.79,SW,214,5.0,9.0,30,0.00,,---,0.00,VWS V14.01,2013-05-27 07:33:00,
2013-05-27 01:38:00,49.3,18.4,29.79,WSW,243,4.0,10.0,29,0.00,,---,0.00,VWS V14.01,2013-05-27 07:38:00,
2013-05-27 01:43:00,49.2,18.3,29.79,SSW,211,7.0,8.0,29,0.00,,---,0.00,VWS V14.01,2013-05-27 07:43:00,
2013-05-27 01:48:00,49.3,17.6,29.79,SW,217,2.0,5.0,28,0.00,,---,0.00,VWS V14.01,2013-05-27 07:48:00,
2013-05-27 01:53:00,49.4,17.7,29.79,SSW,192,4.0,8.0,28,0.00,,---,0.00,VWS V14.01,2013-05-27 07:53:00,
2013-05-27 01:58:00,49.4,16.8,29.79,SSW,198,5.0,8.0,27,0.00,,---,0.00,VWS V14.01,2013-05-27 07:58:00,
2013-05-27 02:03:00,49.3,17.6,29.79,South,178,1.0,4.0,28,0.00,,---,0.00,VWS V14.01,2013-05-27 08:03:00,
2013-05-27 02:08:00,49.2,17.5,29.79,South,184,2.0,5.0,28,0.00,,---,0.00,VWS V14.01,2013-05-27 08:08:00,
2013-05-27 02:13:00,49.0,17.3,29.78,SSW,192,5.0,7.0,28,0.00,,---,0.00,VWS V14.01,2013-05-27 08:13:00,
2013-05-27 02:18:00,48.8,16.3,29.78,SSW,200,5.0,5.0,27,0.00,,---,0.00,VWS V14.01,2013-05-27 08:18:00,
2013-05-27 02:23:00,48.7,16.2,29.79,SSW,192,5.0,5.0,27,0.00,,---,0.00,VWS V14.01,2013-05-27 08:23:00,
2013-05-27 02:28:00,48.5,16.1,29.79,SSW,193,5.0,5.0,27,0.00,,---,0.00,VWS V14.01,2013-05-27 08:28:00,
2013-05-27 02:33:00,48.5,16.1,29.78,SSW,211,1.0,7.0,27,0.00,,---,0.00,VWS V14.01,2013-05-27 08:33:00,
2013-05-27 02:38:00,48.5,16.1,29.78,SSW,208,5.0,5.0,27,0.00,,---,0.00,VWS V14.01,2013-05-27 08:38:00,
2013-05-27 02:43:00,48.3,15.9,29.78,SSW,208,4.0,6.0,27,0.00,,---,0.00,VWS V14.01,2013-05-27 08:43:00,
2013-05-27 02:48:00,48.0,16.5,29.78,SSE,155,1.0,6.0,28,0.00,,---,0.00,VWS V14.01,2013-05-27 08:48:00,
2013-05-27 02:53:00,47.8,17.1,29.78,SSE,159,0.0,1.0,29,0.00,,---,0.00,VWS V14.01,2013-05-27 08:53:00,
2013-05-27 02:58:00,47.6,16.1,29.78,South,173,2.0,5.0,28,0.00,,---,0.00,VWS V14.01,2013-05-27 08:58:00,
2013-05-27 03:03:00,47.4,15.9,29.78,South,171,3.0,7.0,28,0.00,,---,0.00,VWS V14.01,2013-05-27 09:03:00,
2013-05-27 03:08:00,47.2,16.6,29.78,South,190,2.0,8.0,29,0.00,,---,0.00,VWS V14.01,2013-05-27 09:08:00,
2013-05-27 03:13:00,46.9,16.3,29.78,SSW,192,7.0,7.0,29,0.00,,---,0.00,VWS V14.01,2013-05-27 09:13:00,
2013-05-27 03:18:00,46.9,16.3,29.78,South,190,5.0,5.0,29,0.00,,---,0.00,VWS V14.01,2013-05-27 09:18:00,
2013-05-27 03:23:00,46.8,16.2,29.78,SSW,194,2.0,4.0,29,0.00,,---,0.00,VWS V14.01,2013-05-27 09:23:00,
2013-05-27 03:28:00,46.8,16.2,29.78,SSW,207,4.0,5.0,29,0.00,,---,0.00,VWS V14.01,2013-05-27 09:28:00,
2013-05-27 03:33:00,46.8,15.4,29.78,SSW,211,1.0,7.0,28,0.00,,---,0.00,VWS V14.01,2013-05-27 09:33:00,
2013-05-27 03:38:00,46.9,15.5,29.78,SSW,209,3.0,5.0,28,0.00,,---,0.00,VWS V14.01,2013-05-27 09:38:00,
2013-05-27 03:43:00,46.7,16.1,29.77,West,259,1.0,5.0,29,0.00,,---,0.00,VWS V14.01,2013-05-27 09:43:00,
2013-05-27 03:48:00,46.5,16.0,29.77,SW,234,5.0,7.0,29,0.00,,---,0.00,VWS V14.01,2013-05-27 09:48:00,
2013-05-27 03:53:00,46.4,15.1,29.77,South,184,5.0,8.0,28,0.00,,---,0.00,VWS V14.01,2013-05-27 09:53:00,
2013-05-27 03:58:00,46.4,15.1,29.77,South,177,8.0,10.0,28,0.00,,---,0.00,VWS V14.01,2013-05-27 09:58:00,
2013-05-27 04:03:00,46.4,15.1,29.78,SSE,159,0.0,4.0,28,0.00,,---,0.00,VWS V14.01,2013-05-27 10:03:00,
2013-05-27 04:08:00,46.5,14.3,29.78,South,184,5.0,5.0,27,0.00,,---,0.00,VWS V14.01,2013-05-27 10:08:00,
2013-05-27 04:13:00,46.6,14.4,29.78,SSW,192,6.0,6.0,27,0.00,,---,0.00,VWS V14.01,2013-05-27 10:13:00,
2013-05-27 04:18:00,46.9,12.9,29.78,SSW,198,5.0,5.0,25,0.00,,---,0.00,VWS V14.01,2013-05-27 10:18:00,
2013-05-27 04:23:00,47.0,13.9,29.78,SSW,213,6.0,6.0,26,0.00,,---,0.00,VWS V14.01,2013-05-27 10:23:00,
2013-05-27 04:28:00,47.1,13.1,29.78,SW,221,3.0,6.0,25,0.00,,---,0.00,VWS V14.01,2013-05-27 10:28:00,
2013-05-27 04:33:00,47.1,13.1,29.78,SW,221,6.0,7.0,25,0.00,,---,0.00,VWS V14.01,2013-05-27 10:33:00,
2013-05-27 04:38:00,47.1,12.2,29.78,WSW,237,5.0,6.0,24,0.00,,---,0.00,VWS V14.01,2013-05-27 10:38:00,
2013-05-27 04:43:00,47.4,11.5,29.78,SW,236,4.0,6.0,23,0.00,,---,0.00,VWS V14.01,2013-05-27 10:43:00,
2013-05-27 04:48:00,47.5,11.6,29.78,SW,236,5.0,6.0,23,0.00,,---,0.00,VWS V14.01,2013-05-27 10:48:00,
2013-05-27 04:53:00,47.5,10.6,29.79,SSW,195,4.0,5.0,22,0.00,,---,0.00,VWS V14.01,2013-05-27 10:53:00,
2013-05-27 04:58:00,47.6,10.6,29.79,SSW,192,6.0,6.0,22,0.00,,---,0.00,VWS V14.01,2013-05-27 10:58:00,
2013-05-27 05:03:00,47.4,10.5,29.79,SSW,205,5.0,6.0,22,0.00,,---,0.00,VWS V14.01,2013-05-27 11:03:00,
2013-05-27 05:08:00,47.3,11.4,29.79,SSW,196,6.0,7.0,23,0.00,,---,0.00,VWS V14.01,2013-05-27 11:08:00,
2013-05-27 05:13:00,47.1,11.2,29.79,SSW,207,4.0,6.0,23,0.00,,---,0.00,VWS V14.01,2013-05-27 11:13:00,
2013-05-27 05:18:00,46.9,12.0,29.79,SW,224,2.0,7.0,24,0.00,,---,0.00,VWS V14.01,2013-05-27 11:18:00,
2013-05-27 05:23:00,46.6,11.8,29.79,SW,231,6.0,6.0,24,0.00,,---,0.00,VWS V14.01,2013-05-27 11:23:00,
2013-05-27 05:28:00,46.4,11.6,29.79,SW,232,5.0,7.0,24,0.00,,---,0.00,VWS V14.01,2013-05-27 11:28:00,
2013-05-27 05:33:00,46.1,12.2,29.79,SW,217,8.0,8.0,25,0.00,,---,0.00,VWS V14.01,2013-05-27 11:33:00,
2013-05-27 05:38:00,45.8,11.1,29.79,SW,225,5.0,7.0,24,0.00,,---,0.00,VWS V14.01,2013-05-27 11:38:00,
2013-05-27 05:43:00,45.8,11.1,29.79,WSW,241,6.0,8.0,24,0.00,,---,0.00,VWS V14.01,2013-05-27 11:43:00,
2013-05-27 05:48:00,46.0,10.3,29.80,WSW,240,5.0,8.0,23,0.00,,---,0.00,VWS V14.01,2013-05-27 11:48:00,
2013-05-27 05:53:00,46.2,10.5,29.79,SW,216,7.0,7.0,23,0.00,,---,0.00,VWS V14.01,2013-05-27 11:53:00,
2013-05-27 05:58:00,46.4,10.6,29.79,SW,214,7.0,8.0,23,0.00,,---,0.00,VWS V14.01,2013-05-27 11:58:00,
2013-05-27 06:03:00,46.5,10.7,29.80,WSW,257,7.0,8.0,23,0.00,,---,0.00,VWS V14.01,2013-05-27 12:03:00,
2013-05-27 06:08:00,46.5,10.7,29.80,WSW,237,6.0,7.0,23,0.00,,---,0.00,VWS V14.01,2013-05-27 12:08:00,
2013-05-27 06:13:00,46.3,11.5,29.80,WSW,238,4.0,5.0,24,0.00,,---,0.00,VWS V14.01,2013-05-27 12:13:00,
2013-05-27 06:19:00,45.9,11.2,29.80,WNW,284,4.0,5.0,24,0.00,,---,0.00,VWS V14.01,2013-05-27 12:19:00,
2013-05-27 06:24:00,45.3,13.3,29.80,WNW,284,1.0,2.0,27,0.00,,---,0.00,VWS V14.01,2013-05-27 12:24:00,
2013-05-27 06:29:00,44.6,13.5,29.80,WNW,284,0.0,0.0,28,0.00,,---,0.00,VWS V14.01,2013-05-27 12:29:00,
2013-05-27 06:34:00,44.2,12.4,29.80,WNW,284,0.0,0.0,27,0.00,,---,0.00,VWS V14.01,2013-05-27 12:34:00,
2013-05-27 06:39:00,44.3,12.4,29.80,SW,223,0.0,0.0,27,0.00,,---,0.00,VWS V14.01,2013-05-27 12:39:00,
2013-05-27 06:44:00,44.9,13.0,29.80,SW,221,2.0,2.0,27,0.00,,---,0.00,VWS V14.01,2013-05-27 12:44:00,
2013-05-27 06:49:00,45.4,12.5,29.80,SW,221,4.0,6.0,26,0.00,,---,0.00,VWS V14.01,2013-05-27 12:49:00,
2013-05-27 06:54:00,46.1,13.1,29.80,SSW,208,6.0,7.0,26,0.00,,---,0.00,VWS V14.01,2013-05-27 12:54:00,
2013-05-27 06:59:00,46.8,14.6,29.79,WSW,254,6.0,8.0,27,0.00,,---,0.00,VWS V14.01,2013-05-27 12:59:00,
2013-05-27 07:04:00,47.4,14.2,29.79,SSW,198,0.0,7.0,26,0.00,,---,0.00,VWS V14.01,2013-05-27 13:04:00,
2013-05-27 07:09:00,48.1,14.9,29.79,SSW,205,6.0,11.0,26,0.00,,---,0.00,VWS V14.01,2013-05-27 13:09:00,
2013-05-27 07:14:00,49.1,14.8,29.79,West,265,9.0,16.0,25,0.00,,---,0.00,VWS V14.01,2013-05-27 13:14:00,
2013-05-27 07:19:00,50.2,13.9,29.79,SW,216,6.0,18.0,23,0.00,,---,0.00,VWS V14.01,2013-05-27 13:19:00,
2013-05-27 07:24:00,50.9,15.4,29.79,SSW,204,16.0,20.0,24,0.00,,---,0.00,VWS V14.01,2013-05-27 13:24:00,
2013-05-27 07:29:00,51.6,15.0,29.79,SSW,193,8.0,13.0,23,0.00,,---,0.00,VWS V14.01,2013-05-27 13:29:00,
2013-05-27 07:34:00,52.2,14.5,29.79,West,276,10.0,16.0,22,0.00,,---,0.00,VWS V14.01,2013-05-27 13:34:00,
2013-05-27 07:39:00,52.8,16.0,29.79,WSW,250,10.0,16.0,23,0.00,,---,0.00,VWS V14.01,2013-05-27 13:39:00,
2013-05-27 07:44:00,53.3,15.4,29.79,WSW,243,7.0,15.0,22,0.00,,---,0.00,VWS V14.01,2013-05-27 13:44:00,
2013-05-27 07:49:00,53.7,13.6,29.80,WSW,240,16.0,18.0,20,0.00,,---,0.00,VWS V14.01,2013-05-27 13:49:00,
2013-05-27 07:54:00,54.0,13.9,29.80,SW,231,11.0,16.0,20,0.00,,---,0.00,VWS V14.01,2013-05-27 13:54:00,
2013-05-27 07:59:00,54.4,14.2,29.80,WSW,253,10.0,20.0,20,0.00,,---,0.00,VWS V14.01,2013-05-27 13:59:00,
2013-05-27 08:04:00,54.9,13.4,29.80,SSW,209,7.0,16.0,19,0.00,,---,0.00,VWS V14.01,2013-05-27 14:04:00,
2013-05-27 08:09:00,55.2,13.7,29.81,WSW,255,5.0,13.0,19,0.00,,---,0.00,VWS V14.01,2013-05-27 14:09:00,
2013-05-27 08:14:00,55.5,13.9,29.81,SW,236,8.0,10.0,19,0.00,,---,0.00,VWS V14.01,2013-05-27 14:14:00,
2013-05-27 08:19:00,55.9,14.3,29.81,WSW,242,11.0,16.0,19,0.00,,---,0.00,VWS V14.01,2013-05-27 14:19:00,
2013-05-27 08:24:00,56.2,14.5,29.81,WSW,242,2.0,5.0,19,0.00,,---,0.00,VWS V14.01,2013-05-27 14:24:00,
2013-05-27 08:29:00,56.6,13.6,29.81,WNW,286,9.0,16.0,18,0.00,,---,0.00,VWS V14.01,2013-05-27 14:29:00,
2013-05-27 08:34:00,56.6,14.8,29.81,SSW,211,9.0,22.0,19,0.00,,---,0.00,VWS V14.01,2013-05-27 14:34:00,
2013-05-27 08:39:00,56.6,14.8,29.80,SW,221,6.0,11.0,19,0.00,,---,0.00,VWS V14.01,2013-05-27 14:39:00,
2013-05-27 08:44:00,56.8,15.0,29.80,WSW,249,9.0,14.0,19,0.00,,---,0.00,VWS V14.01,2013-05-27 14:44:00,
2013-05-27 08:49:00,56.7,13.7,29.80,SW,229,5.0,7.0,18,0.00,,---,0.00,VWS V14.01,2013-05-27 14:49:00,
2013-05-27 08:54:00,56.5,14.8,29.80,West,269,8.0,10.0,19,0.00,,---,0.00,VWS V14.01,2013-05-27 14:54:00,
2013-05-27 08:59:00,55.8,14.2,29.80,WSW,254,10.0,10.0,19,0.00,,---,0.00,VWS V14.01,2013-05-27 14:59:00,
2013-05-27 09:04:00,55.4,16.1,29.80,West,275,2.0,4.0,21,0.00,,---,0.00,VWS V14.01,2013-05-27 15:04:00,
2013-05-27 09:09:00,56.0,16.6,29.80,West,271,13.0,21.0,21,0.00,,---,0.00,VWS V14.01,2013-05-27 15:09:00,
2013-05-27 09:14:00,56.8,16.2,29.80,West,269,11.0,14.0,20,0.00,,---,0.00,VWS V14.01,2013-05-27 15:14:00,
2013-05-27 09:19:00,56.9,15.1,29.80,NW,319,4.0,9.0,19,0.00,,---,0.00,VWS V14.01,2013-05-27 15:19:00,
2013-05-27 09:24:00,57.1,16.4,29.80,West,259,2.0,18.0,20,0.00,,---,0.00,VWS V14.01,2013-05-27 15:24:00,
2013-05-27 09:29:00,56.9,15.1,29.80,SSW,211,6.0,12.0,19,0.00,,---,0.00,VWS V14.01,2013-05-27 15:29:00,
2013-05-27 09:34:00,57.3,16.6,29.80,WSW,247,13.0,13.0,20,0.00,,---,0.00,VWS V14.01,2013-05-27 15:34:00,
2013-05-27 09:39:00,57.3,16.6,29.80,SW,230,3.0,12.0,20,0.00,,---,0.00,VWS V14.01,2013-05-27 15:39:00,
2013-05-27 09:44:00,57.3,15.4,29.80,West,281,5.0,11.0,19,0.00,,---,0.00,VWS V14.01,2013-05-27 15:44:00,
2013-05-27 09:49:00,57.2,17.6,29.80,NW,313,2.0,6.0,21,0.00,,---,0.00,VWS V14.01,2013-05-27 15:49:00,
2013-05-27 09:54:00,57.4,17.8,29.80,SW,217,5.0,7.0,21,0.00,,---,0.00,VWS V14.01,2013-05-27 15:54:00,
2013-05-27 09:59:00,57.2,15.3,29.79,SSW,203,6.0,11.0,19,0.00,,---,0.00,VWS V14.01,2013-05-27 15:59:00,
2013-05-27 10:04:00,57.2,16.5,29.79,WNW,297,4.0,8.0,20,0.00,,---,0.00,VWS V14.01,2013-05-27 16:04:00,
2013-05-27 10:09:00,57.7,18.1,29.79,West,276,6.0,12.0,21,0.00,,---,0.00,VWS V14.01,2013-05-27 16:09:00,
2013-05-27 10:14:00,58.4,17.5,29.79,West,278,11.0,14.0,20,0.00,,---,0.00,VWS V14.01,2013-05-27 16:14:00,
2013-05-27 10:19:00,59.3,18.3,29.79,WSW,250,7.0,12.0,20,0.00,,---,0.00,VWS V14.01,2013-05-27 16:19:00,
2013-05-27 10:24:00,60.1,17.7,29.78,NNW,347,7.0,13.0,19,0.00,,---,0.00,VWS V14.01,2013-05-27 16:24:00,
2013-05-27 10:29:00,60.8,18.3,29.78,West,275,11.0,21.0,19,0.00,,---,0.00,VWS V14.01,2013-05-27 16:29:00,
2013-05-27 10:34:00,61.2,18.6,29.78,WNW,290,12.0,12.0,19,0.00,,---,0.00,VWS V14.01,2013-05-27 16:34:00,
2013-05-27 10:39:00,61.1,17.3,29.78,NW,315,7.0,7.0,18,0.00,,---,0.00,VWS V14.01,2013-05-27 16:39:00,
2013-05-27 10:44:00,61.6,19.0,29.78,WSW,243,5.0,10.0,19,0.00,,---,0.00,VWS V14.01,2013-05-27 16:44:00,
2013-05-27 10:50:00,61.8,20.3,29.78,WSW,244,9.0,15.0,20,0.00,,---,0.00,VWS V14.01,2013-05-27 16:50:00,
2013-05-27 10:55:00,62.1,18.1,29.78,SW,227,9.0,9.0,18,0.00,,---,0.00,VWS V14.01,2013-05-27 16:55:00,
2013-05-27 11:00:00,62.3,18.3,29.78,SSW,195,6.0,8.0,18,0.00,,---,0.00,VWS V14.01,2013-05-27 17:00:00,
2013-05-27 11:05:00,62.1,19.4,29.78,SSW,211,10.0,11.0,19,0.00,,---,0.00,VWS V14.01,2013-05-27 17:05:00,
2013-05-27 11:10:00,61.9,18.0,29.78,SW,221,2.0,10.0,18,0.00,,---,0.00,VWS V14.01,2013-05-27 17:10:00,
2013-05-27 11:15:00,62.6,18.5,29.78,SW,236,8.0,14.0,18,0.00,,---,0.00,VWS V14.01,2013-05-27 17:15:00,
2013-05-27 11:20:00,62.5,18.5,29.78,WSW,252,6.0,12.0,18,0.00,,---,0.00,VWS V14.01,2013-05-27 17:20:00,
2013-05-27 11:25:00,62.6,18.5,29.78,WSW,241,7.0,13.0,18,0.00,,---,0.00,VWS V14.01,2013-05-27 17:25:00,
2013-05-27 11:30:00,62.9,18.8,29.78,WSW,239,9.0,14.0,18,0.00,,---,0.00,VWS V14.01,2013-05-27 17:30:00,
2013-05-27 11:35:00,62.8,17.4,29.78,SW,230,9.0,10.0,17,0.00,,---,0.00,VWS V14.01,2013-05-27 17:35:00,
2013-05-27 11:40:00,62.6,17.2,29.77,WSW,245,7.0,8.0,17,0.00,,---,0.00,VWS V14.01,2013-05-27 17:40:00,
2013-05-27 11:45:00,63.0,17.5,29.77,WSW,242,9.0,13.0,17,0.00,,---,0.00,VWS V14.01,2013-05-27 17:45:00,
2013-05-27 11:50:00,63.5,17.9,29.77,SSW,193,4.0,10.0,17,0.00,,---,0.00,VWS V14.01,2013-05-27 17:50:00,
2013-05-27 11:55:00,64.5,18.8,29.77,WSW,257,8.0,16.0,17,0.00,,---,0.00,VWS V14.01,2013-05-27 17:55:00,
2013-05-27 12:00:00,64.3,15.7,29.77,South,186,0.0,12.0,15,0.00,,---,0.00,VWS V14.01,2013-05-27 18:00:00,
2013-05-27 12:05:00,64.3,17.2,29.77,South,179,6.0,9.0,16,0.00,,---,0.00,VWS V14.01,2013-05-27 18:05:00,
2013-05-27 12:10:00,64.2,15.6,29.77,SSW,203,6.0,10.0,15,0.00,,---,0.00,VWS V14.01,2013-05-27 18:10:00,
2013-05-27 12:15:00,63.9,16.9,29.77,SW,220,4.0,10.0,16,0.00,,---,0.00,VWS V14.01,2013-05-27 18:15:00,
2013-05-27 12:20:00,63.9,16.9,29.77,SSW,207,8.0,8.0,16,0.00,,---,0.00,VWS V14.01,2013-05-27 18:20:00,
2013-05-27 12:25:00,63.4,19.2,29.76,WSW,242,9.0,11.0,18,0.00,,---,0.00,VWS V14.01,2013-05-27 18:25:00,
2013-05-27 12:30:00,64.5,21.4,29.77,SSW,211,8.0,15.0,19,0.00,,---,0.00,VWS V14.01,2013-05-27 18:30:00,
2013-05-27 12:35:00,65.1,16.3,29.76,ESE,111,9.0,9.0,15,0.00,,---,0.00,VWS V14.01,2013-05-27 18:35:00,
2013-05-27 12:40:00,65.1,20.6,29.76,SW,224,6.0,10.0,18,0.00,,---,0.00,VWS V14.01,2013-05-27 18:40:00,
2013-05-27 12:45:00,65.7,19.7,29.76,WSW,249,8.0,13.0,17,0.00,,---,0.00,VWS V14.01,2013-05-27 18:45:00,
2013-05-27 12:50:00,66.3,15.7,29.76,SE,134,6.0,19.0,14,0.00,,---,0.00,VWS V14.01,2013-05-27 18:50:00,
2013-05-27 12:55:00,65.8,16.9,29.76,West,263,13.0,13.0,15,0.00,,---,0.00,VWS V14.01,2013-05-27 18:55:00,
2013-05-27 13:00:00,65.4,20.8,29.76,SSW,209,7.0,13.0,18,0.00,,---,0.00,VWS V14.01,2013-05-27 19:00:00,
2013-05-27 13:05:00,65.8,16.9,29.76,South,179,7.0,13.0,15,0.00,,---,0.00,VWS V14.01,2013-05-27 19:05:00,
2013-05-27 13:10:00,66.3,14.0,29.76,SW,215,13.0,21.0,13,0.00,,---,0.00,VWS V14.01,2013-05-27 19:10:00,
2013-05-27 13:15:00,66.2,17.2,29.76,South,169,8.0,10.0,15,0.00,,---,0.00,VWS V14.01,2013-05-27 19:15:00,
2013-05-27 13:20:00,66.2,17.2,29.75,WSW,248,10.0,18.0,15,0.00,,---,0.00,VWS V14.01,2013-05-27 19:20:00,
2013-05-27 13:25:00,64.4,15.8,29.75,SW,217,7.0,7.0,15,0.00,,---,0.00,VWS V14.01,2013-05-27 19:25:00,
2013-05-27 13:30:00,63.8,15.3,29.75,SW,221,11.0,12.0,15,0.00,,---,0.00,VWS V14.01,2013-05-27 19:30:00,
2013-05-27 13:35:00,63.7,15.2,29.76,SSW,200,10.0,13.0,15,0.00,,---,0.00,VWS V14.01,2013-05-27 19:35:00,
2013-05-27 13:40:00,64.6,14.4,29.75,South,187,9.0,12.0,14,0.00,,---,0.00,VWS V14.01,2013-05-27 19:40:00,
2013-05-27 13:45:00,65.1,14.8,29.76,SSW,209,5.0,18.0,14,0.00,,---,0.00,VWS V14.01,2013-05-27 19:45:00,
2013-05-27 13:50:00,64.9,14.6,29.75,SSW,195,8.0,13.0,14,0.00,,---,0.00,VWS V14.01,2013-05-27 19:50:00,
2013-05-27 13:56:00,65.1,16.3,29.75,South,182,11.0,19.0,15,0.00,,---,0.00,VWS V14.01,2013-05-27 19:56:00,
2013-05-27 14:01:00,64.9,16.2,29.74,West,266,7.0,9.0,15,0.00,,---,0.00,VWS V14.01,2013-05-27 20:01:00,
2013-05-27 14:06:00,65.4,15.0,29.74,SW,218,13.0,13.0,14,0.00,,---,0.00,VWS V14.01,2013-05-27 20:06:00,
2013-05-27 14:11:00,65.9,15.4,29.74,SSW,205,13.0,16.0,14,0.00,,---,0.00,VWS V14.01,2013-05-27 20:11:00,
2013-05-27 14:16:00,65.3,14.9,29.73,NW,325,6.0,10.0,14,0.00,,---,0.00,VWS V14.01,2013-05-27 20:16:00,
2013-05-27 14:21:00,64.3,18.6,29.73,SSW,200,11.0,11.0,17,0.00,,---,0.00,VWS V14.01,2013-05-27 20:21:00,
2013-05-27 14:26:00,65.1,17.8,29.73,SSW,200,10.0,14.0,16,0.00,,---,0.00,VWS V14.01,2013-05-27 20:26:00,
2013-05-27 14:31:00,66.6,17.5,29.73,SSE,165,19.0,24.0,15,0.00,,---,0.00,VWS V14.01,2013-05-27 20:31:00,
2013-05-27 14:36:00,66.6,17.5,29.73,South,190,7.0,15.0,15,0.00,,---,0.00,VWS V14.01,2013-05-27 20:36:00,
2013-05-27 14:41:00,67.0,17.9,29.73,SW,223,7.0,13.0,15,0.00,,---,0.00,VWS V14.01,2013-05-27 20:41:00,
2013-05-27 14:46:00,66.4,18.9,29.73,West,269,11.0,11.0,16,0.00,,---,0.00,VWS V14.01,2013-05-27 20:46:00,
2013-05-27 14:51:00,66.0,18.5,29.72,West,260,9.0,13.0,16,0.00,,---,0.00,VWS V14.01,2013-05-27 20:51:00,
2013-05-27 14:56:00,65.9,17.0,29.73,SSW,208,10.0,15.0,15,0.00,,---,0.00,VWS V14.01,2013-05-27 20:56:00,
2013-05-27 15:01:00,65.7,15.2,29.73,SSW,199,10.0,15.0,14,0.00,,---,0.00,VWS V14.01,2013-05-27 21:01:00,
2013-05-27 15:06:00,65.3,16.5,29.72,WSW,247,12.0,15.0,15,0.00,,---,0.00,VWS V14.01,2013-05-27 21:06:00,
2013-05-27 15:11:00,66.3,17.3,29.72,WSW,240,13.0,23.0,15,0.00,,---,0.00,VWS V14.01,2013-05-27 21:11:00,
2013-05-27 15:16:00,66.9,17.8,29.72,SW,228,11.0,16.0,15,0.00,,---,0.00,VWS V14.01,2013-05-27 21:16:00,
2013-05-27 15:22:00,66.6,17.5,29.72,South,186,5.0,15.0,15,0.00,,---,0.00,VWS V14.01,2013-05-27 21:22:00,
2013-05-27 15:27:00,66.1,15.6,29.72,SW,219,12.0,13.0,14,0.00,,---,0.00,VWS V14.01,2013-05-27 21:27:00,
2013-05-27 15:32:00,66.2,17.2,29.72,SSW,205,12.0,15.0,15,0.00,,---,0.00,VWS V14.01,2013-05-27 21:32:00,
2013-05-27 15:37:00,66.3,15.7,29.71,SSW,196,13.0,13.0,14,0.00,,---,0.00,VWS V14.01,2013-05-27 21:37:00,
2013-05-27 15:42:00,65.5,16.7,29.72,South,175,7.0,14.0,15,0.00,,---,0.00,VWS V14.01,2013-05-27 21:42:00,
2013-05-27 15:47:00,65.3,18.0,29.71,SSW,197,11.0,11.0,16,0.00,,---,0.00,VWS V14.01,2013-05-27 21:47:00,
2013-05-27 15:52:00,65.8,18.4,29.70,West,270,15.0,22.0,16,0.00,,---,0.00,VWS V14.01,2013-05-27 21:52:00,
2013-05-27 15:57:00,65.6,18.2,29.71,South,186,15.0,20.0,16,0.00,,---,0.00,VWS V14.01,2013-05-27 21:57:00,
2013-05-27 16:02:00,65.2,16.4,29.71,SW,219,6.0,10.0,15,0.00,,---,0.00,VWS V14.01,2013-05-27 22:02:00,
2013-05-27 16:07:00,64.5,17.3,29.70,SW,220,10.0,16.0,16,0.00,,---,0.00,VWS V14.01,2013-05-27 22:07:00,
2013-05-27 16:12:00,64.4,18.7,29.70,WSW,245,14.0,27.0,17,0.00,,---,0.00,VWS V14.01,2013-05-27 22:12:00,
2013-05-27 16:17:00,64.6,18.8,29.70,West,261,13.0,13.0,17,0.00,,---,0.00,VWS V14.01,2013-05-27 22:17:00,
2013-05-27 16:22:00,65.0,19.2,29.71,SSW,209,8.0,20.0,17,0.00,,---,0.00,VWS V14.01,2013-05-27 22:22:00,
2013-05-27 16:27:00,65.2,17.9,29.70,South,185,7.0,14.0,16,0.00,,---,0.00,VWS V14.01,2013-05-27 22:27:00,
2013-05-27 16:32:00,65.6,21.0,29.70,SSW,194,13.0,13.0,18,0.00,,---,0.00,VWS V14.01,2013-05-27 22:32:00,
2013-05-27 16:37:00,66.1,17.1,29.70,WSW,242,13.0,16.0,15,0.00,,---,0.00,VWS V14.01,2013-05-27 22:37:00,
2013-05-27 16:42:00,65.1,19.2,29.70,WNW,282,16.0,16.0,17,0.00,,---,0.00,VWS V14.01,2013-05-27 22:42:00,
2013-05-27 16:47:00,65.0,19.2,29.69,SW,225,9.0,22.0,17,0.00,,---,0.00,VWS V14.01,2013-05-27 22:47:00,
2013-05-27 16:52:00,64.7,18.9,29.70,SSW,205,7.0,20.0,17,0.00,,---,0.00,VWS V14.01,2013-05-27 22:52:00,
2013-05-27 16:57:00,64.3,19.9,29.70,SSW,207,12.0,12.0,18,0.00,,---,0.00,VWS V14.01,2013-05-27 22:57:00,
2013-05-27 17:03:00,63.9,18.3,29.69,SW,228,11.0,20.0,17,0.00,,---,0.00,VWS V14.01,2013-05-27 23:03:00,
2013-05-27 17:08:00,64.5,18.8,29.69,SSW,198,13.0,19.0,17,0.00,,---,0.00,VWS V14.01,2013-05-27 23:08:00,
2013-05-27 17:13:00,64.5,18.8,29.69,SSW,202,12.0,14.0,17,0.00,,---,0.00,VWS V14.01,2013-05-27 23:13:00,
2013-05-27 17:18:00,64.2,19.8,29.69,SSW,197,12.0,15.0,18,0.00,,---,0.00,VWS V14.01,2013-05-27 23:18:00,
2013-05-27 17:23:00,64.6,20.2,29.69,South,184,7.0,7.0,18,0.00,,---,0.00,VWS V14.01,2013-05-27 23:23:00,
2013-05-27 17:28:00,64.7,18.9,29.69,SSW,211,6.0,11.0,17,0.00,,---,0.00,VWS V14.01,2013-05-27 23:28:00,
2013-05-27 17:33:00,64.8,20.3,29.69,SSW,209,14.0,14.0,18,0.00,,---,0.00,VWS V14.01,2013-05-27 23:33:00,
2013-05-27 17:38:00,65.0,17.8,29.69,SSW,192,13.0,21.0,16,0.00,,---,0.00,VWS V14.01,2013-05-27 23:38:00,
2013-05-27 17:43:00,64.1,18.4,29.69,SSW,193,9.0,14.0,17,0.00,,---,0.00,VWS V14.01,2013-05-27 23:43:00,
2013-05-27 17:48:00,63.9,18.3,29.69,SW,215,10.0,14.0,17,0.00,,---,0.00,VWS V14.01,2013-05-27 23:48:00,
2013-05-27 17:53:00,63.5,17.9,29.69,South,181,1.0,13.0,17,0.00,,---,0.00,VWS V14.01,2013-05-27 23:53:00,
2013-05-27 17:58:00,63.6,19.4,29.69,SSW,208,10.0,20.0,18,0.00,,---,0.00,VWS V14.01,2013-05-27 23:58:00,
2013-05-27 18:04:00,63.1,18.9,29.69,SSW,213,14.0,14.0,18,0.00,,---,0.00,VWS V14.01,2013-05-28 00:04:00,
2013-05-27 18:09:00,62.5,19.7,29.69,SSW,202,10.0,10.0,19,0.00,,---,0.00,VWS V14.01,2013-05-28 00:09:00,
2013-05-27 18:14:00,61.6,19.0,29.69,SSW,199,19.0,19.0,19,0.00,,---,0.00,VWS V14.01,2013-05-28 00:14:00,
2013-05-27 18:19:00,60.7,19.4,29.69,South,178,5.0,9.0,20,0.00,,---,0.00,VWS V14.01,2013-05-28 00:19:00,
2013-05-27 18:24:00,60.3,20.2,29.69,South,179,9.0,9.0,21,0.00,,---,0.00,VWS V14.01,2013-05-28 00:24:00,
2013-05-27 18:29:00,59.6,19.6,29.69,South,183,5.0,11.0,21,0.00,,---,0.00,VWS V14.01,2013-05-28 00:29:00,
2013-05-27 18:34:00,59.0,18.0,29.69,SSW,198,7.0,15.0,20,0.00,,---,0.00,VWS V14.01,2013-05-28 00:34:00,
2013-05-27 18:39:00,58.5,18.7,29.69,SSW,201,7.0,11.0,21,0.00,,---,0.00,VWS V14.01,2013-05-28 00:39:00,
2013-05-27 18:44:00,58.1,18.4,29.69,SSW,197,9.0,12.0,21,0.00,,---,0.00,VWS V14.01,2013-05-28 00:44:00,
2013-05-27 18:49:00,57.7,18.1,29.69,SW,215,12.0,12.0,21,0.00,,---,0.00,VWS V14.01,2013-05-28 00:49:00,
2013-05-27 18:54:00,57.3,18.8,29.69,SW,229,12.0,12.0,22,0.00,,---,0.00,VWS V14.01,2013-05-28 00:54:00,
2013-05-27 19:00:00,56.9,19.5,29.70,SSW,208,4.0,11.0,23,0.00,,---,0.00,VWS V14.01,2013-05-28 01:00:00,
2013-05-27 19:05:00,56.6,20.2,29.70,West,265,5.0,5.0,24,0.00,,---,0.00,VWS V14.01,2013-05-28 01:05:00,
2013-05-27 19:10:00,56.4,21.0,29.70,West,272,9.0,9.0,25,0.00,,---,0.00,VWS V14.01,2013-05-28 01:10:00,
2013-05-27 19:15:00,56.3,21.9,29.70,West,277,2.0,6.0,26,0.00,,---,0.00,VWS V14.01,2013-05-28 01:15:00,
2013-05-27 19:20:00,56.3,21.9,29.70,SW,231,6.0,10.0,26,0.00,,---,0.00,VWS V14.01,2013-05-28 01:20:00,
2013-05-27 19:25:00,56.4,22.0,29.70,SW,218,7.0,10.0,26,0.00,,---,0.00,VWS V14.01,2013-05-28 01:25:00,
2013-05-27 19:30:00,56.5,22.0,29.71,SSW,204,5.0,5.0,26,0.00,,---,0.00,VWS V14.01,2013-05-28 01:30:00,
2013-05-27 19:35:00,56.4,22.9,29.70,SW,217,2.0,11.0,27,0.00,,---,0.00,VWS V14.01,2013-05-28 01:35:00,
2013-05-27 19:40:00,56.3,22.8,29.70,SW,227,10.0,10.0,27,0.00,,---,0.00,VWS V14.01,2013-05-28 01:40:00,
2013-05-27 19:45:00,56.2,23.5,29.71,SSW,209,3.0,7.0,28,0.00,,---,0.00,VWS V14.01,2013-05-28 01:45:00,
2013-05-27 19:50:00,55.9,23.3,29.71,SW,228,1.0,4.0,28,0.00,,---,0.00,VWS V14.01,2013-05-28 01:50:00,
2013-05-27 19:55:00,55.7,24.0,29.71,SSW,209,0.0,4.0,29,0.00,,---,0.00,VWS V14.01,2013-05-28 01:55:00,
2013-05-27 20:00:00,55.4,23.7,29.71,SSW,209,0.0,0.0,29,0.00,,---,0.00,VWS V14.01,2013-05-28 02:00:00,
2013-05-27 20:05:00,55.0,23.4,29.72,SSW,209,0.0,0.0,29,0.00,,---,0.00,VWS V14.01,2013-05-28 02:05:00,
2013-05-27 20:11:00,54.5,23.7,29.72,SSW,209,0.0,0.0,30,0.00,,---,0.00,VWS V14.01,2013-05-28 02:11:00,
2013-05-27 20:16:00,53.9,23.2,29.72,SSW,209,0.0,0.0,30,0.00,,---,0.00,VWS V14.01,2013-05-28 02:16:00,
2013-05-27 20:21:00,53.3,23.5,29.72,SSW,209,0.0,0.0,31,0.00,,---,0.00,VWS V14.01,2013-05-28 02:21:00,
2013-05-27 20:26:00,52.7,22.9,29.72,SSW,209,0.0,0.0,31,0.00,,---,0.00,VWS V14.01,2013-05-28 02:26:00,
2013-05-27 20:31:00,52.4,23.4,29.72,SSW,209,3.0,3.0,32,0.00,,---,0.00,VWS V14.01,2013-05-28 02:31:00,
2013-05-27 20:36:00,52.2,23.2,29.72,SSW,209,0.0,1.0,32,0.00,,---,0.00,VWS V14.01,2013-05-28 02:36:00,
2013-05-27 20:41:00,51.9,23.7,29.72,SSW,209,0.0,0.0,33,0.00,,---,0.00,VWS V14.01,2013-05-28 02:41:00,
2013-05-27 20:46:00,51.6,23.5,29.72,SW,232,1.0,2.0,33,0.00,,---,0.00,VWS V14.01,2013-05-28 02:46:00,
2013-05-27 20:51:00,51.4,23.3,29.73,SW,232,0.0,0.0,33,0.00,,---,0.00,VWS V14.01,2013-05-28 02:51:00,
2013-05-27 20:56:00,51.2,23.8,29.73,SW,232,0.0,0.0,34,0.00,,---,0.00,VWS V14.01,2013-05-28 02:56:00,
2013-05-27 21:01:00,50.9,23.5,29.73,SW,232,0.0,0.0,34,0.00,,---,0.00,VWS V14.01,2013-05-28 03:01:00,
2013-05-27 21:06:00,50.5,23.9,29.73,SW,232,0.0,0.0,35,0.00,,---,0.00,VWS V14.01,2013-05-28 03:06:00,
2013-05-27 21:11:00,50.0,23.4,29.73,SW,232,0.0,0.0,35,0.00,,---,0.00,VWS V14.01,2013-05-28 03:11:00,
2013-05-27 21:17:00,49.7,23.9,29.73,SW,232,0.0,0.0,36,0.00,,---,0.00,VWS V14.01,2013-05-28 03:17:00,
2013-05-27 21:22:00,49.6,23.1,29.73,SW,232,0.0,0.0,35,0.00,,---,0.00,VWS V14.01,2013-05-28 03:22:00,
2013-05-27 21:27:00,49.6,23.1,29.74,SW,232,0.0,0.0,35,0.00,,---,0.00,VWS V14.01,2013-05-28 03:27:00,
2013-05-27 21:32:00,49.6,23.1,29.74,SW,232,1.0,2.0,35,0.00,,---,0.00,VWS V14.01,2013-05-28 03:32:00,
2013-05-27 21:37:00,49.4,23.6,29.75,SW,232,2.0,5.0,36,0.00,,---,0.00,VWS V14.01,2013-05-28 03:37:00,
2013-05-27 21:42:00,49.2,23.4,29.75,WNW,296,4.0,6.0,36,0.00,,---,0.00,VWS V14.01,2013-05-28 03:42:00,
2013-05-27 21:47:00,49.1,23.3,29.75,WNW,296,4.0,5.0,36,0.00,,---,0.00,VWS V14.01,2013-05-28 03:47:00,
2013-05-27 21:52:00,49.0,23.2,29.75,WNW,296,2.0,4.0,36,0.00,,---,0.00,VWS V14.01,2013-05-28 03:52:00,
2013-05-27 21:57:00,49.0,23.2,29.75,WNW,296,1.0,1.0,36,0.00,,---,0.00,VWS V14.01,2013-05-28 03:57:00,
2013-05-27 22:01:00,49.1,22.6,29.75,WNW,296,4.0,5.0,35,0.00,,---,0.00,VWS V14.01,2013-05-28 04:01:00,
2013-05-27 22:02:00,49.1,22.6,29.75,WNW,296,5.0,5.0,35,0.00,,---,0.00,VWS V14.01,2013-05-28 04:02:00,
2013-05-27 22:07:00,49.0,23.2,29.76,WNW,296,2.0,5.0,36,0.00,,---,0.00,VWS V14.01,2013-05-28 04:07:00,
2013-05-27 22:12:00,48.8,23.0,29.76,WNW,295,1.0,4.0,36,0.00,,---,0.00,VWS V14.01,2013-05-28 04:12:00,
2013-05-27 22:17:00,48.5,23.4,29.76,WNW,297,5.0,6.0,37,0.00,,---,0.00,VWS V14.01,2013-05-28 04:17:00,
2013-05-27 22:22:00,48.4,22.7,29.76,WNW,302,5.0,6.0,36,0.00,,---,0.00,VWS V14.01,2013-05-28 04:22:00,
2013-05-27 22:27:00,48.4,22.7,29.76,WNW,302,5.0,6.0,36,0.00,,---,0.00,VWS V14.01,2013-05-28 04:27:00,
2013-05-27 22:33:00,48.5,22.8,29.75,WNW,302,4.0,5.0,36,0.00,,---,0.00,VWS V14.01,2013-05-28 04:33:00,
2013-05-27 22:38:00,48.5,22.8,29.76,WNW,295,5.0,6.0,36,0.00,,---,0.00,VWS V14.01,2013-05-28 04:38:00,
2013-05-27 22:43:00,48.5,22.8,29.76,WNW,295,4.0,5.0,36,0.00,,---,0.00,VWS V14.01,2013-05-28 04:43:00,
2013-05-27 22:48:00,48.1,23.7,29.75,WNW,295,4.0,4.0,38,0.00,,---,0.00,VWS V14.01,2013-05-28 04:48:00,
2013-05-27 22:53:00,47.7,22.7,29.75,WNW,295,0.0,2.0,37,0.00,,---,0.00,VWS V14.01,2013-05-28 04:53:00,
2013-05-27 22:58:00,47.3,22.4,29.75,WNW,295,1.0,1.0,37,0.00,,---,0.00,VWS V14.01,2013-05-28 04:58:00,
2013-05-27 23:03:00,47.0,22.1,29.75,WNW,295,4.0,5.0,37,0.00,,---,0.00,VWS V14.01,2013-05-28 05:03:00,
2013-05-27 23:08:00,46.7,22.5,29.75,WNW,295,4.0,5.0,38,0.00,,---,0.00,VWS V14.01,2013-05-28 05:08:00,
2013-05-27 23:13:00,46.3,22.1,29.75,WNW,295,5.0,6.0,38,0.00,,---,0.00,VWS V14.01,2013-05-28 05:13:00,
2013-05-27 23:18:00,46.6,22.4,29.75,WNW,295,4.0,5.0,38,0.00,,---,0.00,VWS V14.01,2013-05-28 05:18:00,
2013-05-27 23:23:00,46.9,22.0,29.75,WNW,295,4.0,6.0,37,0.00,,---,0.00,VWS V14.01,2013-05-28 05:23:00,
2013-05-27 23:28:00,47.0,22.1,29.74,WNW,295,4.0,4.0,37,0.00,,---,0.00,VWS V14.01,2013-05-28 05:28:00,
2013-05-27 23:33:00,47.1,22.2,29.74,WNW,295,4.0,4.0,37,0.00,,---,0.00,VWS V14.01,2013-05-28 05:33:00,
2013-05-27 23:38:00,47.3,22.4,29.74,WNW,295,3.0,4.0,37,0.00,,---,0.00,VWS V14.01,2013-05-28 05:38:00,
2013-05-27 23:43:00,47.2,22.3,29.74,WNW,295,4.0,4.0,37,0.00,,---,0.00,VWS V14.01,2013-05-28 05:43:00,
2013-05-27 23:48:00,47.2,22.3,29.74,West,277,4.0,4.0,37,0.00,,---,0.00,VWS V14.01,2013-05-28 05:48:00,
2013-05-27 23:53:00,47.2,21.6,29.74,West,277,6.0,6.0,36,0.00,,---,0.00,VWS V14.01,2013-05-28 05:53:00,
2013-05-27 23:58:00,47.4,21.8,29.74,West,277,4.0,5.0,36,0.00,,---,0.00,VWS V14.01,2013-05-28 05:58:00,